sensor_id;sensor_type;location;lat;lon;timestamp;P1;durP1;ratioP1;P2;durP2;ratioP2
15944;SDS011;30172;48.832;8.732;2023-07-31T00:02:23;3.22;;;1.67;;
15944;SDS011;30172;48.832;8.732;2023-07-31T00:04:48;2.05;;;1.85;;
15944;SDS011;30172;48.832;8.732;2023-07-31T00:07:14;4.32;;;2.40;;
15944;SDS011;30172;48.832;8.732;2023-07-31T00:09:39;3.85;;;1.98;;
15944;SDS011;30172;48.832;8.732;2023-07-31T00:12:04;5.80;;;1.88;;
15944;SDS011;30172;48.832;8.732;2023-07-31T00:14:30;3.60;;;1.92;;
15944;SDS011;30172;48.832;8.732;2023-07-31T00:16:55;6.10;;;1.83;;
15944;SDS011;30172;48.832;8.732;2023-07-31T00:19:21;5.28;;;2.00;;
15944;SDS011;30172;48.832;8.732;2023-07-31T00:21:46;4.00;;;1.83;;
15944;SDS011;30172;48.832;8.732;2023-07-31T00:24:11;3.90;;;1.85;;
15944;SDS011;30172;48.832;8.732;2023-07-31T00:26:37;5.10;;;1.60;;
15944;SDS011;30172;48.832;8.732;2023-07-31T00:29:02;5.20;;;1.92;;
15944;SDS011;30172;48.832;8.732;2023-07-31T00:31:27;3.33;;;1.70;;
15944;SDS011;30172;48.832;8.732;2023-07-31T00:33:53;4.60;;;2.00;;
15944;SDS011;30172;48.832;8.732;2023-07-31T00:36:18;3.47;;;1.98;;
15944;SDS011;30172;48.832;8.732;2023-07-31T00:38:43;6.18;;;2.35;;
15944;SDS011;30172;48.832;8.732;2023-07-31T00:41:09;4.88;;;2.13;;
15944;SDS011;30172;48.832;8.732;2023-07-31T00:43:34;4.57;;;1.65;;
15944;SDS011;30172;48.832;8.732;2023-07-31T00:45:59;3.80;;;1.95;;
15944;SDS011;30172;48.832;8.732;2023-07-31T00:48:25;2.90;;;1.80;;
15944;SDS011;30172;48.832;8.732;2023-07-31T00:50:50;4.70;;;1.75;;
15944;SDS011;30172;48.832;8.732;2023-07-31T00:53:16;4.57;;;2.10;;
15944;SDS011;30172;48.832;8.732;2023-07-31T00:55:42;6.30;;;2.22;;
15944;SDS011;30172;48.832;8.732;2023-07-31T00:58:07;6.07;;;2.17;;
15944;SDS011;30172;48.832;8.732;2023-07-31T01:00:32;5.57;;;2.00;;
15944;SDS011;30172;48.832;8.732;2023-07-31T01:02:58;3.40;;;1.85;;
15944;SDS011;30172;48.832;8.732;2023-07-31T01:05:25;2.85;;;1.90;;
15944;SDS011;30172;48.832;8.732;2023-07-31T01:08:04;4.47;;;2.03;;
15944;SDS011;30172;48.832;8.732;2023-07-31T01:10:35;4.57;;;2.00;;
15944;SDS011;30172;48.832;8.732;2023-07-31T01:13:06;4.45;;;2.20;;
15944;SDS011;30172;48.832;8.732;2023-07-31T01:15:32;5.63;;;1.95;;
15944;SDS011;30172;48.832;8.732;2023-07-31T01:17:57;5.05;;;2.00;;
15944;SDS011;30172;48.832;8.732;2023-07-31T01:20:23;9.80;;;2.13;;
15944;SDS011;30172;48.832;8.732;2023-07-31T01:28:28;5.18;;;2.35;;
15944;SDS011;30172;48.832;8.732;2023-07-31T01:31:13;5.25;;;1.83;;
15944;SDS011;30172;48.832;8.732;2023-07-31T01:33:41;5.47;;;1.85;;
15944;SDS011;30172;48.832;8.732;2023-07-31T01:36:07;3.83;;;1.77;;
15944;SDS011;30172;48.832;8.732;2023-07-31T01:38:32;5.03;;;1.85;;
15944;SDS011;30172;48.832;8.732;2023-07-31T01:40:58;2.50;;;1.88;;
15944;SDS011;30172;48.832;8.732;2023-07-31T01:43:23;5.30;;;2.20;;
15944;SDS011;30172;48.832;8.732;2023-07-31T01:45:49;3.45;;;1.90;;
15944;SDS011;30172;48.832;8.732;2023-07-31T01:48:14;3.67;;;2.05;;
15944;SDS011;30172;48.832;8.732;2023-07-31T01:50:40;5.80;;;1.92;;
15944;SDS011;30172;48.832;8.732;2023-07-31T01:53:05;3.63;;;2.08;;
15944;SDS011;30172;48.832;8.732;2023-07-31T01:55:30;3.10;;;1.80;;
15944;SDS011;30172;48.832;8.732;2023-07-31T01:57:55;3.10;;;1.95;;
15944;SDS011;30172;48.832;8.732;2023-07-31T02:00:21;3.95;;;2.05;;
15944;SDS011;30172;48.832;8.732;2023-07-31T02:02:46;3.55;;;2.42;;
15944;SDS011;30172;48.832;8.732;2023-07-31T02:05:11;6.25;;;2.40;;
15944;SDS011;30172;48.832;8.732;2023-07-31T02:07:37;4.00;;;1.90;;
15944;SDS011;30172;48.832;8.732;2023-07-31T02:10:02;4.20;;;2.30;;
15944;SDS011;30172;48.832;8.732;2023-07-31T02:12:27;6.93;;;1.77;;
15944;SDS011;30172;48.832;8.732;2023-07-31T02:14:55;3.33;;;2.20;;
15944;SDS011;30172;48.832;8.732;2023-07-31T02:17:20;4.82;;;2.05;;
15944;SDS011;30172;48.832;8.732;2023-07-31T02:19:46;3.85;;;2.30;;
15944;SDS011;30172;48.832;8.732;2023-07-31T02:22:11;3.97;;;2.00;;
15944;SDS011;30172;48.832;8.732;2023-07-31T02:24:36;3.97;;;1.92;;
15944;SDS011;30172;48.832;8.732;2023-07-31T02:27:02;4.25;;;2.40;;
15944;SDS011;30172;48.832;8.732;2023-07-31T02:29:27;3.28;;;1.90;;
15944;SDS011;30172;48.832;8.732;2023-07-31T02:31:53;5.40;;;2.22;;
15944;SDS011;30172;48.832;8.732;2023-07-31T02:34:18;3.20;;;2.13;;
15944;SDS011;30172;48.832;8.732;2023-07-31T02:36:43;5.00;;;2.35;;
15944;SDS011;30172;48.832;8.732;2023-07-31T02:39:09;3.00;;;1.80;;
15944;SDS011;30172;48.832;8.732;2023-07-31T02:41:34;5.60;;;2.15;;
15944;SDS011;30172;48.832;8.732;2023-07-31T02:43:59;3.10;;;2.00;;
15944;SDS011;30172;48.832;8.732;2023-07-31T02:46:24;5.70;;;2.15;;
15944;SDS011;30172;48.832;8.732;2023-07-31T02:48:50;3.20;;;2.27;;
15944;SDS011;30172;48.832;8.732;2023-07-31T02:51:16;4.13;;;2.40;;
15944;SDS011;30172;48.832;8.732;2023-07-31T02:53:41;6.60;;;2.07;;
15944;SDS011;30172;48.832;8.732;2023-07-31T02:56:07;6.25;;;1.95;;
15944;SDS011;30172;48.832;8.732;2023-07-31T02:58:32;5.73;;;2.30;;
15944;SDS011;30172;48.832;8.732;2023-07-31T03:00:58;5.00;;;2.13;;
15944;SDS011;30172;48.832;8.732;2023-07-31T03:03:23;3.23;;;2.10;;
15944;SDS011;30172;48.832;8.732;2023-07-31T03:05:49;6.57;;;2.23;;
15944;SDS011;30172;48.832;8.732;2023-07-31T03:08:14;5.93;;;2.23;;
15944;SDS011;30172;48.832;8.732;2023-07-31T03:10:39;2.57;;;2.10;;
15944;SDS011;30172;48.832;8.732;2023-07-31T03:13:05;4.90;;;2.10;;
15944;SDS011;30172;48.832;8.732;2023-07-31T03:15:30;6.43;;;2.75;;
15944;SDS011;30172;48.832;8.732;2023-07-31T03:17:56;3.72;;;2.30;;
15944;SDS011;30172;48.832;8.732;2023-07-31T03:20:21;2.42;;;1.80;;
15944;SDS011;30172;48.832;8.732;2023-07-31T03:22:46;6.77;;;2.70;;
15944;SDS011;30172;48.832;8.732;2023-07-31T03:25:12;3.07;;;2.00;;
15944;SDS011;30172;48.832;8.732;2023-07-31T03:27:37;6.47;;;2.37;;
15944;SDS011;30172;48.832;8.732;2023-07-31T03:30:03;7.30;;;2.40;;
15944;SDS011;30172;48.832;8.732;2023-07-31T03:32:28;6.00;;;1.93;;
15944;SDS011;30172;48.832;8.732;2023-07-31T03:34:54;5.50;;;2.10;;
15944;SDS011;30172;48.832;8.732;2023-07-31T03:37:19;3.83;;;2.08;;
15944;SDS011;30172;48.832;8.732;2023-07-31T03:39:44;5.87;;;2.20;;
15944;SDS011;30172;48.832;8.732;2023-07-31T03:42:10;6.78;;;2.42;;
15944;SDS011;30172;48.832;8.732;2023-07-31T03:44:35;5.50;;;2.37;;
15944;SDS011;30172;48.832;8.732;2023-07-31T03:47:00;5.13;;;2.30;;
15944;SDS011;30172;48.832;8.732;2023-07-31T03:49:26;4.80;;;2.50;;
15944;SDS011;30172;48.832;8.732;2023-07-31T03:51:51;4.00;;;2.20;;
15944;SDS011;30172;48.832;8.732;2023-07-31T03:54:16;5.80;;;1.97;;
15944;SDS011;30172;48.832;8.732;2023-07-31T03:56:41;3.13;;;2.30;;
15944;SDS011;30172;48.832;8.732;2023-07-31T03:59:07;5.73;;;2.03;;
15944;SDS011;30172;48.832;8.732;2023-07-31T04:01:32;4.37;;;2.37;;
15944;SDS011;30172;48.832;8.732;2023-07-31T04:03:57;5.10;;;2.40;;
15944;SDS011;30172;48.832;8.732;2023-07-31T04:06:23;5.53;;;2.33;;
15944;SDS011;30172;48.832;8.732;2023-07-31T04:08:48;3.70;;;2.20;;
15944;SDS011;30172;48.832;8.732;2023-07-31T04:11:14;4.05;;;2.42;;
15944;SDS011;30172;48.832;8.732;2023-07-31T04:13:39;2.10;;;1.90;;
15944;SDS011;30172;48.832;8.732;2023-07-31T04:16:04;6.13;;;2.30;;
15944;SDS011;30172;48.832;8.732;2023-07-31T04:18:30;3.33;;;2.40;;
15944;SDS011;30172;48.832;8.732;2023-07-31T04:20:56;3.28;;;2.00;;
15944;SDS011;30172;48.832;8.732;2023-07-31T04:23:23;3.90;;;2.17;;
15944;SDS011;30172;48.832;8.732;2023-07-31T04:25:48;4.30;;;2.07;;
15944;SDS011;30172;48.832;8.732;2023-07-31T04:28:14;8.27;;;3.78;;
15944;SDS011;30172;48.832;8.732;2023-07-31T04:30:39;3.78;;;1.90;;
15944;SDS011;30172;48.832;8.732;2023-07-31T04:33:04;5.32;;;2.53;;
15944;SDS011;30172;48.832;8.732;2023-07-31T04:35:29;5.25;;;2.40;;
15944;SDS011;30172;48.832;8.732;2023-07-31T04:37:55;3.60;;;2.10;;
15944;SDS011;30172;48.832;8.732;2023-07-31T04:40:20;3.50;;;2.30;;
15944;SDS011;30172;48.832;8.732;2023-07-31T04:42:46;4.50;;;2.42;;
15944;SDS011;30172;48.832;8.732;2023-07-31T04:45:12;6.15;;;2.70;;
15944;SDS011;30172;48.832;8.732;2023-07-31T04:47:37;4.25;;;2.50;;
15944;SDS011;30172;48.832;8.732;2023-07-31T04:50:02;5.72;;;2.50;;
15944;SDS011;30172;48.832;8.732;2023-07-31T04:52:28;5.03;;;2.10;;
15944;SDS011;30172;48.832;8.732;2023-07-31T04:54:53;4.15;;;2.20;;
15944;SDS011;30172;48.832;8.732;2023-07-31T04:57:18;5.20;;;2.42;;
15944;SDS011;30172;48.832;8.732;2023-07-31T04:59:43;6.35;;;2.58;;
15944;SDS011;30172;48.832;8.732;2023-07-31T05:02:09;4.47;;;2.50;;
15944;SDS011;30172;48.832;8.732;2023-07-31T05:04:36;3.90;;;2.13;;
15944;SDS011;30172;48.832;8.732;2023-07-31T05:07:02;3.72;;;2.47;;
15944;SDS011;30172;48.832;8.732;2023-07-31T05:09:27;4.88;;;2.00;;
15944;SDS011;30172;48.832;8.732;2023-07-31T05:11:52;4.50;;;2.42;;
15944;SDS011;30172;48.832;8.732;2023-07-31T05:14:18;2.78;;;1.70;;
15944;SDS011;30172;48.832;8.732;2023-07-31T05:16:43;3.78;;;2.20;;
15944;SDS011;30172;48.832;8.732;2023-07-31T05:19:08;4.95;;;2.22;;
15944;SDS011;30172;48.832;8.732;2023-07-31T05:21:34;4.10;;;2.55;;
15944;SDS011;30172;48.832;8.732;2023-07-31T05:23:59;3.22;;;2.30;;
15944;SDS011;30172;48.832;8.732;2023-07-31T05:26:24;5.20;;;2.33;;
15944;SDS011;30172;48.832;8.732;2023-07-31T05:28:50;4.50;;;2.65;;
15944;SDS011;30172;48.832;8.732;2023-07-31T05:31:15;9.93;;;2.72;;
15944;SDS011;30172;48.832;8.732;2023-07-31T05:33:40;3.92;;;2.13;;
15944;SDS011;30172;48.832;8.732;2023-07-31T05:36:06;4.18;;;2.28;;
15944;SDS011;30172;48.832;8.732;2023-07-31T05:38:31;7.95;;;2.40;;
15944;SDS011;30172;48.832;8.732;2023-07-31T05:40:56;6.28;;;2.22;;
15944;SDS011;30172;48.832;8.732;2023-07-31T05:43:22;5.60;;;2.28;;
15944;SDS011;30172;48.832;8.732;2023-07-31T05:45:47;5.45;;;2.45;;
15944;SDS011;30172;48.832;8.732;2023-07-31T05:48:12;4.45;;;2.15;;
15944;SDS011;30172;48.832;8.732;2023-07-31T05:50:38;6.57;;;2.40;;
15944;SDS011;30172;48.832;8.732;2023-07-31T05:53:06;4.82;;;1.77;;
15944;SDS011;30172;48.832;8.732;2023-07-31T05:55:33;6.20;;;2.50;;
15944;SDS011;30172;48.832;8.732;2023-07-31T05:57:58;3.78;;;2.05;;
15944;SDS011;30172;48.832;8.732;2023-07-31T06:00:23;4.13;;;2.00;;
15944;SDS011;30172;48.832;8.732;2023-07-31T06:02:49;5.45;;;2.25;;
15944;SDS011;30172;48.832;8.732;2023-07-31T06:05:14;5.75;;;2.20;;
15944;SDS011;30172;48.832;8.732;2023-07-31T06:07:39;4.82;;;2.30;;
15944;SDS011;30172;48.832;8.732;2023-07-31T06:10:05;5.22;;;2.20;;
15944;SDS011;30172;48.832;8.732;2023-07-31T06:12:31;3.47;;;2.35;;
15944;SDS011;30172;48.832;8.732;2023-07-31T06:14:56;5.53;;;2.97;;
15944;SDS011;30172;48.832;8.732;2023-07-31T06:17:22;6.80;;;2.28;;
15944;SDS011;30172;48.832;8.732;2023-07-31T06:19:47;4.47;;;2.30;;
15944;SDS011;30172;48.832;8.732;2023-07-31T06:22:13;6.93;;;2.47;;
15944;SDS011;30172;48.832;8.732;2023-07-31T06:24:38;4.97;;;2.25;;
15944;SDS011;30172;48.832;8.732;2023-07-31T06:27:03;4.35;;;2.63;;
15944;SDS011;30172;48.832;8.732;2023-07-31T06:29:30;4.50;;;2.30;;
15944;SDS011;30172;48.832;8.732;2023-07-31T06:31:55;3.72;;;2.00;;
15944;SDS011;30172;48.832;8.732;2023-07-31T06:34:20;3.33;;;2.03;;
15944;SDS011;30172;48.832;8.732;2023-07-31T06:36:46;3.38;;;2.10;;
15944;SDS011;30172;48.832;8.732;2023-07-31T06:39:11;4.38;;;2.50;;
15944;SDS011;30172;48.832;8.732;2023-07-31T06:41:37;4.78;;;2.50;;
15944;SDS011;30172;48.832;8.732;2023-07-31T06:44:03;4.13;;;2.00;;
15944;SDS011;30172;48.832;8.732;2023-07-31T06:46:28;5.85;;;2.20;;
15944;SDS011;30172;48.832;8.732;2023-07-31T06:48:53;5.53;;;2.38;;
15944;SDS011;30172;48.832;8.732;2023-07-31T06:51:19;5.32;;;2.10;;
15944;SDS011;30172;48.832;8.732;2023-07-31T06:53:45;4.53;;;2.20;;
15944;SDS011;30172;48.832;8.732;2023-07-31T06:56:10;5.10;;;2.10;;
15944;SDS011;30172;48.832;8.732;2023-07-31T06:58:35;3.20;;;2.25;;
15944;SDS011;30172;48.832;8.732;2023-07-31T07:01:01;7.00;;;2.45;;
15944;SDS011;30172;48.832;8.732;2023-07-31T07:03:27;3.53;;;2.20;;
15944;SDS011;30172;48.832;8.732;2023-07-31T07:05:52;5.60;;;2.42;;
15944;SDS011;30172;48.832;8.732;2023-07-31T07:08:17;5.18;;;2.30;;
15944;SDS011;30172;48.832;8.732;2023-07-31T07:10:43;3.92;;;1.88;;
15944;SDS011;30172;48.832;8.732;2023-07-31T07:13:08;4.53;;;2.33;;
15944;SDS011;30172;48.832;8.732;2023-07-31T07:15:34;2.88;;;2.25;;
15944;SDS011;30172;48.832;8.732;2023-07-31T07:17:59;6.10;;;2.45;;
15944;SDS011;30172;48.832;8.732;2023-07-31T07:20:27;7.97;;;2.83;;
15944;SDS011;30172;48.832;8.732;2023-07-31T07:22:52;4.25;;;1.98;;
15944;SDS011;30172;48.832;8.732;2023-07-31T07:25:18;3.45;;;2.67;;
15944;SDS011;30172;48.832;8.732;2023-07-31T07:27:43;6.00;;;2.38;;
15944;SDS011;30172;48.832;8.732;2023-07-31T07:30:09;7.93;;;2.50;;
15944;SDS011;30172;48.832;8.732;2023-07-31T07:32:34;3.60;;;2.17;;
15944;SDS011;30172;48.832;8.732;2023-07-31T07:34:59;4.75;;;2.58;;
15944;SDS011;30172;48.832;8.732;2023-07-31T07:37:25;5.88;;;2.53;;
15944;SDS011;30172;48.832;8.732;2023-07-31T07:39:50;4.57;;;2.58;;
15944;SDS011;30172;48.832;8.732;2023-07-31T07:42:15;5.82;;;2.25;;
15944;SDS011;30172;48.832;8.732;2023-07-31T07:44:41;4.80;;;2.25;;
15944;SDS011;30172;48.832;8.732;2023-07-31T07:47:06;7.30;;;2.15;;
15944;SDS011;30172;48.832;8.732;2023-07-31T07:49:32;3.55;;;2.47;;
15944;SDS011;30172;48.832;8.732;2023-07-31T07:51:59;2.75;;;2.10;;
15944;SDS011;30172;48.832;8.732;2023-07-31T07:54:24;6.22;;;2.58;;
15944;SDS011;30172;48.832;8.732;2023-07-31T07:56:50;6.32;;;2.88;;
15944;SDS011;30172;48.832;8.732;2023-07-31T07:59:15;5.00;;;2.35;;
15944;SDS011;30172;48.832;8.732;2023-07-31T08:01:40;5.00;;;2.50;;
15944;SDS011;30172;48.832;8.732;2023-07-31T08:04:06;4.90;;;2.45;;
15944;SDS011;30172;48.832;8.732;2023-07-31T08:06:31;4.43;;;2.58;;
15944;SDS011;30172;48.832;8.732;2023-07-31T08:08:56;4.28;;;2.25;;
15944;SDS011;30172;48.832;8.732;2023-07-31T08:11:21;5.00;;;2.20;;
15944;SDS011;30172;48.832;8.732;2023-07-31T08:13:48;4.07;;;2.50;;
15944;SDS011;30172;48.832;8.732;2023-07-31T08:16:14;3.05;;;2.47;;
15944;SDS011;30172;48.832;8.732;2023-07-31T08:18:39;4.68;;;2.50;;
15944;SDS011;30172;48.832;8.732;2023-07-31T08:21:05;6.18;;;2.42;;
15944;SDS011;30172;48.832;8.732;2023-07-31T08:23:30;5.97;;;2.60;;
15944;SDS011;30172;48.832;8.732;2023-07-31T08:25:56;5.32;;;2.47;;
15944;SDS011;30172;48.832;8.732;2023-07-31T08:28:21;6.30;;;2.70;;
15944;SDS011;30172;48.832;8.732;2023-07-31T08:30:46;3.90;;;2.40;;
15944;SDS011;30172;48.832;8.732;2023-07-31T08:33:12;5.80;;;2.50;;
15944;SDS011;30172;48.832;8.732;2023-07-31T08:35:37;5.47;;;2.50;;
15944;SDS011;30172;48.832;8.732;2023-07-31T08:38:02;6.40;;;2.45;;
15944;SDS011;30172;48.832;8.732;2023-07-31T08:40:28;5.47;;;2.45;;
15944;SDS011;30172;48.832;8.732;2023-07-31T08:42:54;5.15;;;2.45;;
15944;SDS011;30172;48.832;8.732;2023-07-31T08:45:21;6.80;;;2.72;;
15944;SDS011;30172;48.832;8.732;2023-07-31T08:47:48;4.13;;;2.72;;
15944;SDS011;30172;48.832;8.732;2023-07-31T08:50:15;4.95;;;2.90;;
15944;SDS011;30172;48.832;8.732;2023-07-31T08:52:41;3.65;;;2.33;;
15944;SDS011;30172;48.832;8.732;2023-07-31T08:55:07;7.75;;;2.85;;
15944;SDS011;30172;48.832;8.732;2023-07-31T08:57:34;6.28;;;2.85;;
15944;SDS011;30172;48.832;8.732;2023-07-31T09:00:01;7.22;;;2.97;;
15944;SDS011;30172;48.832;8.732;2023-07-31T09:02:34;6.80;;;2.85;;
15944;SDS011;30172;48.832;8.732;2023-07-31T09:05:05;5.70;;;2.70;;
15944;SDS011;30172;48.832;8.732;2023-07-31T09:07:31;6.47;;;3.15;;
15944;SDS011;30172;48.832;8.732;2023-07-31T09:09:57;6.13;;;2.85;;
15944;SDS011;30172;48.832;8.732;2023-07-31T09:12:22;6.03;;;2.88;;
15944;SDS011;30172;48.832;8.732;2023-07-31T09:14:47;6.30;;;3.08;;
15944;SDS011;30172;48.832;8.732;2023-07-31T09:17:13;4.35;;;2.55;;
15944;SDS011;30172;48.832;8.732;2023-07-31T09:19:38;5.13;;;2.75;;
15944;SDS011;30172;48.832;8.732;2023-07-31T09:22:04;9.25;;;3.10;;
15944;SDS011;30172;48.832;8.732;2023-07-31T09:24:31;7.13;;;2.80;;
15944;SDS011;30172;48.832;8.732;2023-07-31T09:26:58;5.30;;;2.85;;
15944;SDS011;30172;48.832;8.732;2023-07-31T09:29:24;5.68;;;3.00;;
15944;SDS011;30172;48.832;8.732;2023-07-31T09:31:51;4.57;;;2.75;;
15944;SDS011;30172;48.832;8.732;2023-07-31T09:34:17;5.25;;;2.78;;
15944;SDS011;30172;48.832;8.732;2023-07-31T09:36:46;6.22;;;2.50;;
15944;SDS011;30172;48.832;8.732;2023-07-31T09:39:14;5.97;;;2.83;;
15944;SDS011;30172;48.832;8.732;2023-07-31T09:41:45;4.72;;;2.97;;
15944;SDS011;30172;48.832;8.732;2023-07-31T09:44:12;6.93;;;3.00;;
15944;SDS011;30172;48.832;8.732;2023-07-31T09:46:38;6.40;;;2.65;;
15944;SDS011;30172;48.832;8.732;2023-07-31T09:49:07;5.35;;;2.67;;
15944;SDS011;30172;48.832;8.732;2023-07-31T09:51:36;6.15;;;2.80;;
15944;SDS011;30172;48.832;8.732;2023-07-31T09:54:15;6.30;;;2.40;;
15944;SDS011;30172;48.832;8.732;2023-07-31T09:56:42;7.70;;;2.85;;
15944;SDS011;30172;48.832;8.732;2023-07-31T09:59:10;4.80;;;2.78;;
15944;SDS011;30172;48.832;8.732;2023-07-31T10:01:37;6.30;;;2.95;;
15944;SDS011;30172;48.832;8.732;2023-07-31T10:04:03;6.28;;;2.70;;
15944;SDS011;30172;48.832;8.732;2023-07-31T10:06:30;4.45;;;2.63;;
15944;SDS011;30172;48.832;8.732;2023-07-31T10:08:55;4.97;;;2.92;;
15944;SDS011;30172;48.832;8.732;2023-07-31T10:11:22;5.90;;;3.05;;
15944;SDS011;30172;48.832;8.732;2023-07-31T10:13:48;4.13;;;2.83;;
15944;SDS011;30172;48.832;8.732;2023-07-31T10:16:14;6.28;;;2.90;;
15944;SDS011;30172;48.832;8.732;2023-07-31T10:18:41;7.78;;;3.03;;
15944;SDS011;30172;48.832;8.732;2023-07-31T10:21:08;4.30;;;2.60;;
15944;SDS011;30172;48.832;8.732;2023-07-31T10:23:33;5.78;;;2.70;;
15944;SDS011;30172;48.832;8.732;2023-07-31T10:25:59;4.22;;;2.55;;
15944;SDS011;30172;48.832;8.732;2023-07-31T10:28:25;5.43;;;2.85;;
15944;SDS011;30172;48.832;8.732;2023-07-31T10:30:51;6.03;;;2.80;;
15944;SDS011;30172;48.832;8.732;2023-07-31T10:33:17;7.35;;;3.30;;
15944;SDS011;30172;48.832;8.732;2023-07-31T10:35:43;4.63;;;2.90;;
15944;SDS011;30172;48.832;8.732;2023-07-31T10:38:12;6.68;;;3.10;;
15944;SDS011;30172;48.832;8.732;2023-07-31T10:40:38;6.30;;;3.08;;
15944;SDS011;30172;48.832;8.732;2023-07-31T10:43:03;6.68;;;2.95;;
15944;SDS011;30172;48.832;8.732;2023-07-31T10:45:31;4.72;;;2.67;;
15944;SDS011;30172;48.832;8.732;2023-07-31T10:47:58;7.97;;;4.00;;
15944;SDS011;30172;48.832;8.732;2023-07-31T10:50:25;6.13;;;3.00;;
15944;SDS011;30172;48.832;8.732;2023-07-31T10:52:55;7.35;;;3.03;;
15944;SDS011;30172;48.832;8.732;2023-07-31T10:57:47;6.28;;;3.15;;
15944;SDS011;30172;48.832;8.732;2023-07-31T11:00:19;6.50;;;2.92;;
15944;SDS011;30172;48.832;8.732;2023-07-31T11:03:04;7.60;;;2.95;;
15944;SDS011;30172;48.832;8.732;2023-07-31T11:08:29;5.65;;;2.95;;
15944;SDS011;30172;48.832;8.732;2023-07-31T11:13:27;6.15;;;3.00;;
15944;SDS011;30172;48.832;8.732;2023-07-31T11:15:53;4.47;;;2.70;;
15944;SDS011;30172;48.832;8.732;2023-07-31T11:18:18;5.78;;;2.75;;
15944;SDS011;30172;48.832;8.732;2023-07-31T11:20:44;4.85;;;2.58;;
15944;SDS011;30172;48.832;8.732;2023-07-31T11:23:10;5.45;;;3.00;;
15944;SDS011;30172;48.832;8.732;2023-07-31T11:25:35;4.88;;;2.85;;
15944;SDS011;30172;48.832;8.732;2023-07-31T11:28:02;6.40;;;2.90;;
15944;SDS011;30172;48.832;8.732;2023-07-31T11:30:31;5.95;;;2.60;;
15944;SDS011;30172;48.832;8.732;2023-07-31T11:32:57;7.40;;;2.83;;
15944;SDS011;30172;48.832;8.732;2023-07-31T11:35:22;6.55;;;3.05;;
15944;SDS011;30172;48.832;8.732;2023-07-31T11:37:48;4.75;;;3.13;;
15944;SDS011;30172;48.832;8.732;2023-07-31T11:40:14;6.15;;;3.05;;
15944;SDS011;30172;48.832;8.732;2023-07-31T11:42:39;5.68;;;2.78;;
15944;SDS011;30172;48.832;8.732;2023-07-31T11:45:06;4.70;;;3.20;;
15944;SDS011;30172;48.832;8.732;2023-07-31T11:47:35;5.97;;;3.00;;
15944;SDS011;30172;48.832;8.732;2023-07-31T11:50:05;4.90;;;2.85;;
15944;SDS011;30172;48.832;8.732;2023-07-31T11:52:32;6.82;;;2.72;;
15944;SDS011;30172;48.832;8.732;2023-07-31T11:55:04;4.05;;;2.90;;
15944;SDS011;30172;48.832;8.732;2023-07-31T11:57:31;4.97;;;2.60;;
15944;SDS011;30172;48.832;8.732;2023-07-31T11:59:58;5.32;;;2.65;;
15944;SDS011;30172;48.832;8.732;2023-07-31T12:02:23;6.15;;;3.17;;
15944;SDS011;30172;48.832;8.732;2023-07-31T12:04:48;7.53;;;3.10;;
15944;SDS011;30172;48.832;8.732;2023-07-31T12:07:14;7.50;;;2.88;;
15944;SDS011;30172;48.832;8.732;2023-07-31T12:09:50;5.82;;;3.13;;
15944;SDS011;30172;48.832;8.732;2023-07-31T12:12:25;6.22;;;2.80;;
15944;SDS011;30172;48.832;8.732;2023-07-31T12:14:50;4.82;;;2.85;;
15944;SDS011;30172;48.832;8.732;2023-07-31T12:17:16;7.15;;;3.08;;
15944;SDS011;30172;48.832;8.732;2023-07-31T12:19:42;6.13;;;3.30;;
15944;SDS011;30172;48.832;8.732;2023-07-31T12:22:14;5.57;;;3.15;;
15944;SDS011;30172;48.832;8.732;2023-07-31T12:24:41;6.00;;;2.85;;
15944;SDS011;30172;48.832;8.732;2023-07-31T12:27:12;5.35;;;3.10;;
15944;SDS011;30172;48.832;8.732;2023-07-31T12:29:39;8.70;;;3.00;;
15944;SDS011;30172;48.832;8.732;2023-07-31T12:32:24;3.80;;;2.65;;
15944;SDS011;30172;48.832;8.732;2023-07-31T12:34:50;5.78;;;2.72;;
15944;SDS011;30172;48.832;8.732;2023-07-31T12:37:16;7.28;;;2.67;;
15944;SDS011;30172;48.832;8.732;2023-07-31T12:39:41;4.85;;;2.75;;
15944;SDS011;30172;48.832;8.732;2023-07-31T12:42:07;5.10;;;2.67;;
15944;SDS011;30172;48.832;8.732;2023-07-31T12:44:32;4.25;;;2.90;;
15944;SDS011;30172;48.832;8.732;2023-07-31T12:46:57;6.07;;;2.83;;
15944;SDS011;30172;48.832;8.732;2023-07-31T12:49:23;4.65;;;2.70;;
15944;SDS011;30172;48.832;8.732;2023-07-31T12:51:48;4.05;;;2.70;;
15944;SDS011;30172;48.832;8.732;2023-07-31T12:54:13;4.97;;;2.88;;
15944;SDS011;30172;48.832;8.732;2023-07-31T12:56:39;3.67;;;2.75;;
15944;SDS011;30172;48.832;8.732;2023-07-31T12:59:05;5.38;;;2.90;;
15944;SDS011;30172;48.832;8.732;2023-07-31T13:01:30;5.22;;;2.65;;
15944;SDS011;30172;48.832;8.732;2023-07-31T13:03:56;4.72;;;2.58;;
15944;SDS011;30172;48.832;8.732;2023-07-31T13:06:22;8.70;;;3.17;;
15944;SDS011;30172;48.832;8.732;2023-07-31T13:08:47;4.40;;;2.75;;
15944;SDS011;30172;48.832;8.732;2023-07-31T13:11:12;4.78;;;3.10;;
15944;SDS011;30172;48.832;8.732;2023-07-31T13:13:38;4.97;;;2.75;;
15944;SDS011;30172;48.832;8.732;2023-07-31T13:16:03;6.10;;;2.65;;
15944;SDS011;30172;48.832;8.732;2023-07-31T13:18:28;5.60;;;2.67;;
15944;SDS011;30172;48.832;8.732;2023-07-31T13:20:54;5.22;;;2.70;;
15944;SDS011;30172;48.832;8.732;2023-07-31T13:23:19;4.68;;;3.10;;
15944;SDS011;30172;48.832;8.732;2023-07-31T13:25:44;5.28;;;2.80;;
15944;SDS011;30172;48.832;8.732;2023-07-31T13:28:10;4.45;;;2.50;;
15944;SDS011;30172;48.832;8.732;2023-07-31T13:30:35;7.45;;;2.80;;
15944;SDS011;30172;48.832;8.732;2023-07-31T13:33:00;4.95;;;2.67;;
15944;SDS011;30172;48.832;8.732;2023-07-31T13:35:26;5.75;;;2.83;;
15944;SDS011;30172;48.832;8.732;2023-07-31T13:37:51;5.05;;;2.50;;
15944;SDS011;30172;48.832;8.732;2023-07-31T13:40:16;5.88;;;2.85;;
15944;SDS011;30172;48.832;8.732;2023-07-31T13:42:42;4.60;;;2.70;;
15944;SDS011;30172;48.832;8.732;2023-07-31T13:45:07;4.35;;;2.80;;
15944;SDS011;30172;48.832;8.732;2023-07-31T13:47:33;5.38;;;2.85;;
15944;SDS011;30172;48.832;8.732;2023-07-31T13:49:59;3.25;;;2.58;;
15944;SDS011;30172;48.832;8.732;2023-07-31T13:52:24;5.63;;;3.05;;
15944;SDS011;30172;48.832;8.732;2023-07-31T13:54:49;4.60;;;2.70;;
15944;SDS011;30172;48.832;8.732;2023-07-31T13:57:15;4.35;;;2.80;;
15944;SDS011;30172;48.832;8.732;2023-07-31T13:59:40;6.82;;;2.70;;
15944;SDS011;30172;48.832;8.732;2023-07-31T14:02:06;4.60;;;2.78;;
15944;SDS011;30172;48.832;8.732;2023-07-31T14:04:31;2.60;;;2.30;;
15944;SDS011;30172;48.832;8.732;2023-07-31T14:06:57;4.00;;;2.88;;
15944;SDS011;30172;48.832;8.732;2023-07-31T14:09:22;5.88;;;3.20;;
15944;SDS011;30172;48.832;8.732;2023-07-31T14:11:47;4.75;;;2.50;;
15944;SDS011;30172;48.832;8.732;2023-07-31T14:14:13;3.75;;;2.63;;
15944;SDS011;30172;48.832;8.732;2023-07-31T14:16:38;3.90;;;2.60;;
15944;SDS011;30172;48.832;8.732;2023-07-31T14:19:04;5.80;;;2.72;;
15944;SDS011;30172;48.832;8.732;2023-07-31T14:21:29;5.75;;;2.92;;
15944;SDS011;30172;48.832;8.732;2023-07-31T14:23:54;2.78;;;2.45;;
15944;SDS011;30172;48.832;8.732;2023-07-31T14:26:20;6.57;;;2.65;;
15944;SDS011;30172;48.832;8.732;2023-07-31T14:28:45;4.22;;;2.65;;
15944;SDS011;30172;48.832;8.732;2023-07-31T14:31:10;4.35;;;2.28;;
15944;SDS011;30172;48.832;8.732;2023-07-31T14:33:36;4.68;;;2.60;;
15944;SDS011;30172;48.832;8.732;2023-07-31T14:36:01;3.60;;;2.50;;
15944;SDS011;30172;48.832;8.732;2023-07-31T14:38:26;3.75;;;2.55;;
15944;SDS011;30172;48.832;8.732;2023-07-31T14:40:52;4.70;;;3.00;;
15944;SDS011;30172;48.832;8.732;2023-07-31T14:43:17;4.85;;;2.88;;
15944;SDS011;30172;48.832;8.732;2023-07-31T14:45:42;3.28;;;2.17;;
15944;SDS011;30172;48.832;8.732;2023-07-31T14:48:08;5.13;;;2.85;;
15944;SDS011;30172;48.832;8.732;2023-07-31T14:50:33;5.05;;;2.80;;
15944;SDS011;30172;48.832;8.732;2023-07-31T14:52:58;3.95;;;2.63;;
15944;SDS011;30172;48.832;8.732;2023-07-31T14:55:24;3.00;;;2.40;;